Time;durP1;ratioP1;P1;durP2;ratioP2;P2;SDS_P1;SDS_P2;PMS_P1;PMS_P2;Temp;Humidity;BMP_temperature;BMP_pressure;BME280_temperature;BME280_humidity;BME280_pressure;Samples;Min_cycle;Max_cycle;Signal;HPM_P1;HPM_P2
2023/12/29 00:03:22;;;;;;;22.42;12.63;;;;;;;;;;10496191;28;20123;-59
2023/12/29 00:08:22;;;;;;;19.83;13.23;;;;;;;;;;10496430;28;20067;-59
2023/12/29 00:13:24;;;;;;;25.83;12.65;;;;;;;;;;10495988;28;20108;-58
2023/12/29 00:18:24;;;;;;;21.10;13.20;;;;;;;;;;10495534;28;20085;-58
2023/12/29 00:23:25;;;;;;;21.35;13.23;;;;;;;;;;10495529;28;20103;-58
2023/12/29 00:28:26;;;;;;;22.13;12.63;;;;;;;;;;10495185;28;20037;-59
2023/12/29 00:33:26;;;;;;;20.92;12.68;;;;;;;;;;10493787;28;20032;-58
2023/12/29 00:38:30;;;;;;;21.88;12.55;;;;;;;;;;10494408;28;20042;-58
2023/12/29 00:43:31;;;;;;;19.13;13.13;;;;;;;;;;10495334;28;20028;-58
2023/12/29 00:48:32;;;;;;;18.52;11.73;;;;;;;;;;10495030;28;20476;-58
2023/12/29 00:53:35;;;;;;;21.60;12.68;;;;;;;;;;10495007;28;20027;-58
2023/12/29 00:58:36;;;;;;;17.85;11.77;;;;;;;;;;10494429;28;20040;-58
2023/12/29 01:03:36;;;;;;;20.48;11.60;;;;;;;;;;10494494;28;20024;-58
2023/12/29 01:08:37;;;;;;;21.95;11.82;;;;;;;;;;10494028;28;20444;-59
2023/12/29 01:13:37;;;;;;;22.75;12.40;;;;;;;;;;10493506;28;20025;-58
2023/12/29 01:18:38;;;;;;;16.10;11.88;;;;;;;;;;10493733;28;20028;-58
2023/12/29 01:23:38;;;;;;;19.35;11.88;;;;;;;;;;10493214;28;20032;-59
2023/12/29 01:28:39;;;;;;;18.35;12.02;;;;;;;;;;10493373;28;20032;-58
2023/12/29 01:33:40;;;;;;;18.17;11.57;;;;;;;;;;10492882;28;20055;-59
2023/12/29 01:38:40;;;;;;;15.55;11.23;;;;;;;;;;10492759;28;20020;-58
2023/12/29 01:43:59;;;;;;;20.00;10.75;;;;;;;;;;10492104;28;20016;-58
2023/12/29 01:48:59;;;;;;;;;;;;;;;;;;10492471;28;20032;-58
2023/12/29 01:54:00;;;;;;;15.27;10.18;;;;;;;;;;10490740;28;19912;-58
2023/12/29 01:59:01;;;;;;;15.00;10.77;;;;;;;;;;10515167;22;20040;-64
2023/12/29 02:04:02;;;;;;;14.43;10.07;;;;;;;;;;10534046;28;20452;-64
2023/12/29 02:09:05;;;;;;;16.02;10.80;;;;;;;;;;10533720;28;20383;-66
2023/12/29 02:14:05;;;;;;;14.35;10.50;;;;;;;;;;10533044;28;20467;-65
2023/12/29 02:19:56;;;;;;;14.38;10.65;;;;;;;;;;10532984;28;20020;-65
2023/12/29 02:24:56;;;;;;;16.10;10.70;;;;;;;;;;10511171;28;20032;-65
2023/12/29 02:30:25;;;;;;;14.82;9.98;;;;;;;;;;10532489;28;20391;-65
2023/12/29 02:35:30;;;;;;;12.43;9.43;;;;;;;;;;10532886;28;20024;-66
2023/12/29 02:40:30;;;;;;;14.20;10.10;;;;;;;;;;10532782;28;20368;-66
2023/12/29 02:45:31;;;;;;;13.63;9.90;;;;;;;;;;10514470;28;20043;-67
2023/12/29 02:50:31;;;;;;;14.25;9.80;;;;;;;;;;10514535;28;20024;-67
2023/12/29 02:55:32;;;;;;;12.40;9.40;;;;;;;;;;10534915;28;20039;-67
2023/12/29 03:00:33;;;;;;;12.98;9.45;;;;;;;;;;10540350;28;20044;-67
2023/12/29 03:05:33;;;;;;;12.57;10.07;;;;;;;;;;10540685;28;20043;-67
2023/12/29 03:10:34;;;;;;;12.15;9.40;;;;;;;;;;10522165;28;20491;-67
2023/12/29 03:15:34;;;;;;;13.00;9.35;;;;;;;;;;10540178;28;20475;-67
2023/12/29 03:20:35;;;;;;;12.77;9.23;;;;;;;;;;10539577;28;20510;-64
2023/12/29 03:25:36;;;;;;;12.07;9.70;;;;;;;;;;10539492;28;20044;-64
2023/12/29 03:30:36;;;;;;;14.13;8.88;;;;;;;;;;10539017;28;20077;-66
2023/12/29 03:35:37;;;;;;;12.90;9.27;;;;;;;;;;10539214;28;20023;-65
2023/12/29 03:40:38;;;;;;;14.35;9.52;;;;;;;;;;10538931;28;20055;-66
2023/12/29 03:45:38;;;;;;;12.38;9.82;;;;;;;;;;10538886;28;20028;-63
2023/12/29 03:50:39;;;;;;;12.82;9.27;;;;;;;;;;10538771;28;20109;-63
2023/12/29 03:55:39;;;;;;;13.13;8.65;;;;;;;;;;10539043;28;20024;-65
2023/12/29 04:00:41;;;;;;;15.15;8.90;;;;;;;;;;10538108;28;20054;-67
2023/12/29 04:05:42;;;;;;;13.27;9.10;;;;;;;;;;10538078;28;20267;-64
2023/12/29 04:10:42;;;;;;;11.07;8.48;;;;;;;;;;10537711;28;20286;-63
2023/12/29 04:15:43;;;;;;;13.90;9.27;;;;;;;;;;10537774;28;20016;-63
2023/12/29 04:20:43;;;;;;;11.98;8.65;;;;;;;;;;10537316;28;20031;-63
2023/12/29 04:25:44;;;;;;;16.40;8.40;;;;;;;;;;10537250;28;20548;-63
2023/12/29 04:30:44;;;;;;;13.32;8.45;;;;;;;;;;10537683;28;20475;-63
2023/12/29 04:35:45;;;;;;;12.55;8.95;;;;;;;;;;10536805;28;20594;-65
2023/12/29 04:40:49;;;;;;;12.60;8.65;;;;;;;;;;10536523;28;20035;-64
2023/12/29 04:45:50;;;;;;;12.35;8.45;;;;;;;;;;10518915;28;20027;-63
2023/12/29 04:50:50;;;;;;;11.43;8.40;;;;;;;;;;10536211;28;20027;-63
2023/12/29 04:55:51;;;;;;;9.30;7.68;;;;;;;;;;10536544;28;20028;-64
2023/12/29 05:00:51;;;;;;;11.20;8.18;;;;;;;;;;10475840;28;20117;-65
2023/12/29 05:05:52;;;;;;;10.73;7.93;;;;;;;;;;10494063;28;20033;-66
2023/12/29 05:10:52;;;;;;;12.13;8.32;;;;;;;;;;10492666;28;20078;-67
2023/12/29 05:15:53;;;;;;;13.68;8.73;;;;;;;;;;10493474;28;20031;-66
2023/12/29 05:20:53;;;;;;;9.45;7.57;;;;;;;;;;10508329;28;20055;-66
2023/12/29 05:25:54;;;;;;;10.77;8.23;;;;;;;;;;10492813;28;20438;-65
2023/12/29 05:30:55;;;;;;;11.07;7.82;;;;;;;;;;10492807;28;20051;-65
2023/12/29 05:35:56;;;;;;;10.55;8.35;;;;;;;;;;10493087;28;20251;-65
2023/12/29 05:40:57;;;;;;;10.30;8.02;;;;;;;;;;10492235;28;20259;-64
2023/12/29 05:45:58;;;;;;;9.55;7.57;;;;;;;;;;10492239;28;20107;-64
2023/12/29 05:50:59;;;;;;;10.15;7.90;;;;;;;;;;10491930;28;20199;-63
2023/12/29 05:55:59;;;;;;;9.10;7.85;;;;;;;;;;10491947;28;20027;-63
2023/12/29 06:01:00;;;;;;;8.80;7.10;;;;;;;;;;10518097;28;20047;-63
2023/12/29 06:06:01;;;;;;;11.95;7.10;;;;;;;;;;10533482;28;20027;-65
2023/12/29 06:11:02;;;;;;;9.77;7.68;;;;;;;;;;10533423;28;20032;-65
2023/12/29 06:16:03;;;;;;;9.57;7.47;;;;;;;;;;10533765;28;20024;-65
2023/12/29 06:21:04;;;;;;;9.93;7.35;;;;;;;;;;10532874;28;20085;-65
2023/12/29 06:26:05;;;;;;;9.55;7.20;;;;;;;;;;10532885;28;20085;-65
2023/12/29 06:31:05;;;;;;;11.05;7.70;;;;;;;;;;10531850;28;20028;-63
2023/12/29 06:36:06;;;;;;;9.23;6.63;;;;;;;;;;10532718;28;20060;-65
2023/12/29 06:41:07;;;;;;;8.70;6.93;;;;;;;;;;10532343;28;20066;-64
2023/12/29 06:46:08;;;;;;;7.60;6.63;;;;;;;;;;10533653;28;20024;-65
2023/12/29 06:51:10;;;;;;;14.63;7.63;;;;;;;;;;10532571;28;20213;-65
2023/12/29 06:56:15;;;;;;;12.18;6.72;;;;;;;;;;10531559;28;20383;-67
2023/12/29 07:01:16;;;;;;;10.63;7.22;;;;;;;;;;10531311;28;20076;-66
2023/12/29 07:06:16;;;;;;;13.02;7.78;;;;;;;;;;10531004;28;20048;-66
2023/12/29 07:11:17;;;;;;;18.77;7.72;;;;;;;;;;10532181;28;20352;-66
2023/12/29 07:16:19;;;;;;;11.35;7.95;;;;;;;;;;10531648;28;20024;-66
2023/12/29 07:21:20;;;;;;;17.83;7.30;;;;;;;;;;10530700;28;20032;-66
2023/12/29 07:26:20;;;;;;;10.68;8.05;;;;;;;;;;10530553;28;20032;-66
2023/12/29 07:31:21;;;;;;;10.95;7.35;;;;;;;;;;10530953;28;20400;-66
2023/12/29 07:36:22;;;;;;;14.48;8.45;;;;;;;;;;10531595;28;20020;-66
2023/12/29 07:41:23;;;;;;;10.23;7.68;;;;;;;;;;10533354;28;20028;-66
2023/12/29 07:46:27;;;;;;;12.82;8.60;;;;;;;;;;10537524;28;20486;-66
2023/12/29 07:51:28;;;;;;;15.95;8.23;;;;;;;;;;10537157;28;20429;-65
2023/12/29 07:56:28;;;;;;;21.77;7.85;;;;;;;;;;10536918;28;20020;-66
2023/12/29 08:01:29;;;;;;;13.35;8.70;;;;;;;;;;10537264;28;20457;-66
2023/12/29 08:06:29;;;;;;;13.02;8.75;;;;;;;;;;10537108;28;20494;-66
2023/12/29 08:11:30;;;;;;;17.63;8.93;;;;;;;;;;10536277;28;20024;-65
2023/12/29 08:16:31;;;;;;;14.05;9.50;;;;;;;;;;10535952;28;20036;-65
2023/12/29 08:21:31;;;;;;;16.40;8.20;;;;;;;;;;10536214;28;20039;-65
2023/12/29 08:26:32;;;;;;;17.08;8.73;;;;;;;;;;10536866;28;20032;-65
2023/12/29 08:31:33;;;;;;;16.52;8.73;;;;;;;;;;10536923;28;20094;-66
2023/12/29 08:36:33;;;;;;;15.27;9.07;;;;;;;;;;10535860;28;20024;-65
2023/12/29 08:41:35;;;;;;;16.70;9.25;;;;;;;;;;10535255;28;20039;-65
2023/12/29 08:46:35;;;;;;;22.55;9.30;;;;;;;;;;10535590;28;20035;-65
2023/12/29 08:51:36;;;;;;;15.35;9.05;;;;;;;;;;10534028;28;20024;-65
2023/12/29 08:56:37;;;;;;;12.32;8.10;;;;;;;;;;10535344;28;20028;-65
2023/12/29 09:01:38;;;;;;;15.50;8.82;;;;;;;;;;10535414;28;20105;-65
2023/12/29 09:06:38;;;;;;;17.67;8.15;;;;;;;;;;10535119;28;20032;-65
2023/12/29 09:11:41;;;;;;;22.90;9.50;;;;;;;;;;10535146;28;20110;-65
2023/12/29 09:16:42;;;;;;;17.17;9.00;;;;;;;;;;10534138;28;20365;-65
2023/12/29 09:21:43;;;;;;;16.23;8.40;;;;;;;;;;10535055;28;20024;-65
2023/12/29 09:26:44;;;;;;;16.67;8.43;;;;;;;;;;10535395;28;20028;-65
2023/12/29 09:31:44;;;;;;;17.45;8.90;;;;;;;;;;10534886;28;20016;-66
2023/12/29 09:36:45;;;;;;;20.25;8.40;;;;;;;;;;10534912;28;20032;-65
2023/12/29 09:41:54;;;;;;;13.23;8.95;;;;;;;;;;10534155;28;20062;-65
2023/12/29 09:46:57;;;;;;;14.27;8.77;;;;;;;;;;10533453;28;20552;-65
2023/12/29 09:51:59;;;;;;;21.33;9.23;;;;;;;;;;10516413;28;20052;-65
2023/12/29 09:57:00;;;;;;;11.45;8.02;;;;;;;;;;10515130;28;20028;-65
2023/12/29 10:02:04;;;;;;;19.50;9.73;;;;;;;;;;10531961;28;20048;-66
2023/12/29 10:07:07;;;;;;;14.52;8.55;;;;;;;;;;10533066;28;20061;-65
2023/12/29 10:12:10;;;;;;;13.43;8.30;;;;;;;;;;10515782;28;20031;-65
2023/12/29 10:17:56;;;;;;;15.27;8.15;;;;;;;;;;10515331;28;20040;-65
2023/12/29 10:23:20;;;;;;;13.82;8.90;;;;;;;;;;10498833;28;20115;-65
2023/12/29 10:28:21;;;;;;;11.82;8.25;;;;;;;;;;10532826;28;20035;-66
2023/12/29 10:33:22;;;;;;;13.68;8.32;;;;;;;;;;10533347;28;20070;-65
2023/12/29 10:38:22;;;;;;;13.93;8.45;;;;;;;;;;10533016;28;20021;-66
2023/12/29 10:43:26;;;;;;;15.82;8.85;;;;;;;;;;10532890;28;20490;-65
2023/12/29 10:48:26;;;;;;;12.57;8.15;;;;;;;;;;10531933;28;20032;-65
2023/12/29 10:53:28;;;;;;;18.25;8.82;;;;;;;;;;10531194;28;20028;-65
2023/12/29 10:58:31;;;;;;;12.35;8.02;;;;;;;;;;10531121;28;20078;-65
2023/12/29 11:03:32;;;;;;;15.68;8.38;;;;;;;;;;10530654;28;20024;-65
2023/12/29 11:08:35;;;;;;;19.10;8.68;;;;;;;;;;10530570;28;20472;-65
2023/12/29 11:13:36;;;;;;;17.23;8.52;;;;;;;;;;10530651;28;20372;-65
2023/12/29 11:18:38;;;;;;;19.65;8.98;;;;;;;;;;10520328;28;20024;-65
2023/12/29 11:23:39;;;;;;;16.38;8.90;;;;;;;;;;10521824;28;20506;-65
2023/12/29 11:28:41;;;;;;;21.00;9.43;;;;;;;;;;10521404;28;20020;-65
2023/12/29 11:33:50;;;;;;;19.08;8.48;;;;;;;;;;10539339;28;20433;-65
2023/12/29 11:39:18;;;;;;;12.00;7.88;;;;;;;;;;10521950;28;20024;-66
2023/12/29 11:44:33;;;;;;;13.82;8.27;;;;;;;;;;10539535;28;20036;-65
2023/12/29 11:50:00;;;;;;;12.65;8.70;;;;;;;;;;10538769;28;20438;-65
2023/12/29 11:55:12;;;;;;;21.10;9.27;;;;;;;;;;10538974;28;20036;-65
2023/12/29 12:00:13;;;;;;;18.50;8.45;;;;;;;;;;10538552;28;20502;-65
2023/12/29 12:05:49;;;;;;;16.55;8.85;;;;;;;;;;10520852;28;20048;-65
2023/12/29 12:10:50;;;;;;;15.40;8.30;;;;;;;;;;10538027;28;20661;-65
2023/12/29 12:15:50;;;;;;;15.25;9.10;;;;;;;;;;10537984;28;20144;-65
2023/12/29 12:20:51;;;;;;;17.60;8.70;;;;;;;;;;10537197;28;20024;-66
2023/12/29 12:25:59;;;;;;;16.30;8.75;;;;;;;;;;10537349;28;20041;-65
2023/12/29 12:31:08;;;;;;;14.85;9.10;;;;;;;;;;10537231;28;20044;-66
2023/12/29 12:36:09;;;;;;;10.15;7.72;;;;;;;;;;10537366;28;20028;-66
2023/12/29 12:41:12;;;;;;;11.13;7.85;;;;;;;;;;10536760;28;20399;-65
2023/12/29 12:46:14;;;;;;;14.95;8.40;;;;;;;;;;10519323;28;20035;-66
2023/12/29 12:51:15;;;;;;;12.10;8.93;;;;;;;;;;10536448;28;20620;-65
2023/12/29 12:56:18;;;;;;;10.55;7.60;;;;;;;;;;10536712;28;20032;-66
2023/12/29 13:01:19;;;;;;;9.95;7.72;;;;;;;;;;10535412;28;20214;-66
2023/12/29 13:06:21;;;;;;;12.02;7.78;;;;;;;;;;10518556;28;20195;-65
2023/12/29 13:11:24;;;;;;;13.45;7.85;;;;;;;;;;10535895;28;20020;-66
2023/12/29 13:16:38;;;;;;;12.10;7.78;;;;;;;;;;10535495;28;20035;-66
2023/12/29 13:21:39;;;;;;;13.15;7.55;;;;;;;;;;10535817;28;20100;-65
2023/12/29 13:26:40;;;;;;;12.05;7.50;;;;;;;;;;10533727;28;20463;-66
2023/12/29 13:31:41;;;;;;;13.48;7.85;;;;;;;;;;10534827;28;20053;-66
2023/12/29 13:37:02;;;;;;;9.45;6.93;;;;;;;;;;10517124;28;20024;-66
2023/12/29 13:42:04;;;;;;;11.55;7.45;;;;;;;;;;10516013;28;20052;-66
2023/12/29 13:47:06;;;;;;;12.38;7.78;;;;;;;;;;10534116;28;20062;-66
2023/12/29 13:52:06;;;;;;;10.48;7.40;;;;;;;;;;10534052;28;20028;-66
2023/12/29 13:57:07;;;;;;;12.10;7.57;;;;;;;;;;10534134;28;20032;-65
2023/12/29 14:02:35;;;;;;;12.02;7.45;;;;;;;;;;10533466;28;20048;-66
2023/12/29 14:07:36;;;;;;;12.07;7.80;;;;;;;;;;10533600;28;20055;-64
2023/12/29 14:12:37;;;;;;;10.93;7.68;;;;;;;;;;10533404;28;20056;-66
2023/12/29 14:17:39;;;;;;;11.75;7.07;;;;;;;;;;10515666;28;20387;-66
2023/12/29 14:22:39;;;;;;;11.23;7.50;;;;;;;;;;10533007;28;20028;-65
2023/12/29 14:27:41;;;;;;;9.40;6.80;;;;;;;;;;10533329;28;20036;-65
2023/12/29 14:32:41;;;;;;;10.50;7.38;;;;;;;;;;10532974;28;20104;-65
2023/12/29 14:37:42;;;;;;;12.70;7.57;;;;;;;;;;10514517;28;20096;-65
2023/12/29 14:42:43;;;;;;;13.68;7.53;;;;;;;;;;10532752;28;20032;-65
2023/12/29 14:47:45;;;;;;;11.70;7.50;;;;;;;;;;10532560;28;20035;-65
2023/12/29 14:52:46;;;;;;;16.10;7.43;;;;;;;;;;10538239;28;20024;-66
2023/12/29 14:57:46;;;;;;;16.17;8.13;;;;;;;;;;10540851;28;20028;-65
2023/12/29 15:02:47;;;;;;;15.05;7.30;;;;;;;;;;10540555;28;20059;-65
2023/12/29 15:07:47;;;;;;;12.20;7.93;;;;;;;;;;10540498;28;20037;-65
2023/12/29 15:12:48;;;;;;;11.23;7.18;;;;;;;;;;10540989;28;20028;-65
2023/12/29 15:17:48;;;;;;;18.92;7.25;;;;;;;;;;10540289;28;20020;-66
2023/12/29 15:22:49;;;;;;;13.57;7.75;;;;;;;;;;10539914;28;20039;-65
2023/12/29 15:27:50;;;;;;;11.63;7.30;;;;;;;;;;10539827;28;20036;-65
2023/12/29 15:32:50;;;;;;;12.20;7.80;;;;;;;;;;10539379;28;20089;-66
2023/12/29 15:37:51;;;;;;;13.98;7.88;;;;;;;;;;10539765;28;20028;-65
2023/12/29 15:42:51;;;;;;;10.90;7.40;;;;;;;;;;10539054;28;20039;-66
2023/12/29 15:47:52;;;;;;;12.20;7.47;;;;;;;;;;10539486;28;20024;-66
2023/12/29 15:52:53;;;;;;;11.50;7.30;;;;;;;;;;10538864;28;20459;-65
2023/12/29 15:57:53;;;;;;;12.25;7.30;;;;;;;;;;10538653;28;20024;-64
2023/12/29 16:02:54;;;;;;;12.75;7.45;;;;;;;;;;10537945;28;20039;-66
2023/12/29 16:07:54;;;;;;;12.52;7.88;;;;;;;;;;10538054;28;20028;-65
2023/12/29 16:13:15;;;;;;;13.55;7.63;;;;;;;;;;10537846;28;20039;-66
2023/12/29 16:18:16;;;;;;;12.18;7.10;;;;;;;;;;10407195;28;20607;-66
2023/12/29 16:23:16;;;;;;;14.02;7.65;;;;;;;;;;10406857;28;20045;-66
2023/12/29 16:28:18;;;;;;;10.55;7.45;;;;;;;;;;10406746;28;20549;-65
2023/12/29 16:33:18;;;;;;;11.60;7.85;;;;;;;;;;10406703;28;20048;-66
2023/12/29 16:38:21;;;;;;;14.98;7.82;;;;;;;;;;10405718;28;20397;-66
2023/12/29 16:43:21;;;;;;;10.35;7.85;;;;;;;;;;10405154;28;20124;-65
2023/12/29 16:48:22;;;;;;;14.93;7.93;;;;;;;;;;10405365;28;20042;-65
2023/12/29 16:53:22;;;;;;;15.32;9.18;;;;;;;;;;10451395;28;20047;-65
2023/12/29 16:58:24;;;;;;;13.13;8.10;;;;;;;;;;10534974;28;20044;-66
2023/12/29 17:03:24;;;;;;;14.60;7.68;;;;;;;;;;10533678;28;20108;-66
2023/12/29 17:08:25;;;;;;;18.33;9.23;;;;;;;;;;10535454;28;20031;-62
2023/12/29 17:13:25;;;;;;;17.27;8.20;;;;;;;;;;10533575;28;20479;-65
2023/12/29 17:18:27;;;;;;;12.82;7.50;;;;;;;;;;10535353;28;20077;-65
2023/12/29 17:23:27;;;;;;;19.80;8.02;;;;;;;;;;10534414;28;20027;-65
2023/12/29 17:28:28;;;;;;;20.35;8.07;;;;;;;;;;10534302;28;20387;-64
2023/12/29 17:33:29;;;;;;;12.48;7.10;;;;;;;;;;10534579;28;20387;-65
2023/12/29 17:38:29;;;;;;;13.77;7.90;;;;;;;;;;10534367;28;20028;-64
2023/12/29 17:43:30;;;;;;;11.27;7.30;;;;;;;;;;10534076;28;20054;-65
2023/12/29 17:48:31;;;;;;;11.48;7.57;;;;;;;;;;10534040;28;20035;-66
2023/12/29 17:53:32;;;;;;;17.10;7.68;;;;;;;;;;10533807;28;20024;-65
2023/12/29 17:58:33;;;;;;;12.35;7.18;;;;;;;;;;10533327;28;20054;-65
2023/12/29 18:03:33;;;;;;;10.82;6.90;;;;;;;;;;10533400;28;20032;-65
2023/12/29 18:08:35;;;;;;;12.73;7.03;;;;;;;;;;10533345;28;20044;-70
2023/12/29 18:13:36;;;;;;;10.00;7.05;;;;;;;;;;10533813;28;20051;-67
2023/12/29 18:18:38;;;;;;;14.68;7.22;;;;;;;;;;10533418;28;20066;-64
2023/12/29 18:23:38;;;;;;;11.18;7.15;;;;;;;;;;10533030;28;20028;-65
2023/12/29 18:28:39;;;;;;;12.82;6.70;;;;;;;;;;10532366;28;20030;-65
2023/12/29 18:33:42;;;;;;;12.73;6.53;;;;;;;;;;10529473;28;20028;-65
2023/12/29 18:38:42;;;;;;;13.65;7.40;;;;;;;;;;10530522;28;20115;-65
2023/12/29 18:43:43;;;;;;;13.07;7.20;;;;;;;;;;10531243;28;20024;-65
2023/12/29 18:48:43;;;;;;;11.38;7.10;;;;;;;;;;10530156;28;20093;-65
2023/12/29 18:53:44;;;;;;;8.05;6.22;;;;;;;;;;10532153;28;20024;-65
2023/12/29 18:58:45;;;;;;;9.07;6.30;;;;;;;;;;10532911;28;20048;-66
2023/12/29 19:03:45;;;;;;;14.68;7.13;;;;;;;;;;10531509;28;20036;-64
2023/12/29 19:08:46;;;;;;;9.40;6.45;;;;;;;;;;10532394;28;20032;-64
2023/12/29 19:13:46;;;;;;;10.90;6.65;;;;;;;;;;10532061;28;20039;-65
2023/12/29 19:18:47;;;;;;;11.43;6.72;;;;;;;;;;10530631;28;20391;-65
2023/12/29 19:23:48;;;;;;;13.95;7.32;;;;;;;;;;10531337;28;20502;-64
2023/12/29 19:28:50;;;;;;;8.27;6.03;;;;;;;;;;10531152;28;20074;-64
2023/12/29 19:33:52;;;;;;;10.57;6.60;;;;;;;;;;10530546;28;20118;-66
2023/12/29 19:38:53;;;;;;;9.57;6.15;;;;;;;;;;10535589;28;20032;-65
2023/12/29 19:43:54;;;;;;;10.20;6.90;;;;;;;;;;10537697;28;20047;-64
2023/12/29 19:48:54;;;;;;;9.73;6.20;;;;;;;;;;10537771;28;20028;-65
2023/12/29 19:53:55;;;;;;;7.90;6.18;;;;;;;;;;10537203;28;20073;-65
2023/12/29 19:58:56;;;;;;;10.05;6.38;;;;;;;;;;10538835;28;20044;-65
2023/12/29 20:03:56;;;;;;;11.32;6.90;;;;;;;;;;10538264;28;20130;-65
2023/12/29 20:08:57;;;;;;;8.85;6.53;;;;;;;;;;10537859;28;20035;-66
2023/12/29 20:13:57;;;;;;;7.32;6.38;;;;;;;;;;10538201;28;20024;-67
2023/12/29 20:19:00;;;;;;;9.35;6.53;;;;;;;;;;10537775;28;20024;-66
2023/12/29 20:24:01;;;;;;;12.60;6.68;;;;;;;;;;10537292;28;20051;-65
2023/12/29 20:29:02;;;;;;;14.68;6.20;;;;;;;;;;10537352;28;20032;-65
2023/12/29 20:34:03;;;;;;;9.27;6.43;;;;;;;;;;10536868;28;20020;-65
2023/12/29 20:39:04;;;;;;;9.35;6.30;;;;;;;;;;10536706;28;20032;-65
2023/12/29 20:44:04;;;;;;;7.63;6.28;;;;;;;;;;10536357;28;20148;-64
2023/12/29 20:49:05;;;;;;;23.17;9.70;;;;;;;;;;10534463;28;20567;-65
2023/12/29 20:54:06;;;;;;;27.88;10.98;;;;;;;;;;10536259;28;20020;-65
2023/12/29 20:59:06;;;;;;;17.70;9.80;;;;;;;;;;10536550;28;20105;-65
2023/12/29 21:04:10;;;;;;;16.05;10.07;;;;;;;;;;10535272;28;20024;-65
2023/12/29 21:09:12;;;;;;;15.02;9.98;;;;;;;;;;10535095;28;20107;-66
2023/12/29 21:14:13;;;;;;;16.50;9.65;;;;;;;;;;10534378;28;20031;-65
2023/12/29 21:19:13;;;;;;;21.38;9.88;;;;;;;;;;10533590;28;20082;-65
2023/12/29 21:24:14;;;;;;;17.65;9.90;;;;;;;;;;10533449;28;20024;-65
2023/12/29 21:29:14;;;;;;;17.60;10.23;;;;;;;;;;10533756;28;20032;-65
2023/12/29 21:34:17;;;;;;;22.50;10.27;;;;;;;;;;10533825;28;20031;-65
2023/12/29 21:39:18;;;;;;;19.92;9.95;;;;;;;;;;10533865;28;20059;-65
2023/12/29 21:44:18;;;;;;;16.17;9.82;;;;;;;;;;10533793;28;20039;-65
2023/12/29 21:49:19;;;;;;;19.15;10.63;;;;;;;;;;10534196;28;20024;-65
2023/12/29 21:54:19;;;;;;;20.05;9.30;;;;;;;;;;10533219;28;20031;-65
2023/12/29 21:59:20;;;;;;;20.50;9.73;;;;;;;;;;10532069;28;20044;-65
2023/12/29 22:04:21;;;;;;;17.73;10.63;;;;;;;;;;10533244;28;20387;-65
2023/12/29 22:09:22;;;;;;;19.73;10.88;;;;;;;;;;10532126;28;20024;-65
2023/12/29 22:14:23;;;;;;;16.48;11.20;;;;;;;;;;10532714;28;20042;-67
2023/12/29 22:19:24;;;;;;;52.22;13.32;;;;;;;;;;10531805;28;20032;-65
2023/12/29 22:24:24;;;;;;;26.60;12.02;;;;;;;;;;10514003;28;20073;-65
2023/12/29 22:29:25;;;;;;;20.75;11.98;;;;;;;;;;10532297;28;20036;-65
2023/12/29 22:34:26;;;;;;;21.20;12.65;;;;;;;;;;10532135;28;20034;-65
2023/12/29 22:39:26;;;;;;;31.63;13.30;;;;;;;;;;10532127;28;20032;-65
2023/12/29 22:44:27;;;;;;;29.13;12.55;;;;;;;;;;10532062;28;20352;-65
2023/12/29 22:49:28;;;;;;;19.15;12.20;;;;;;;;;;10531674;28;20063;-65
2023/12/29 22:54:28;;;;;;;24.40;13.40;;;;;;;;;;10531337;28;20024;-65
2023/12/29 22:59:31;;;;;;;23.83;12.75;;;;;;;;;;10531273;28;20050;-65
2023/12/29 23:04:33;;;;;;;20.50;12.00;;;;;;;;;;10531444;28;20109;-65
2023/12/29 23:09:38;;;;;;;24.48;11.73;;;;;;;;;;10532074;28;20060;-64
2023/12/29 23:14:39;;;;;;;17.63;11.93;;;;;;;;;;10538455;28;20467;-65
2023/12/29 23:19:41;;;;;;;26.70;13.10;;;;;;;;;;10539650;28;20020;-65
2023/12/29 23:24:42;;;;;;;19.05;12.40;;;;;;;;;;10539309;28;20094;-65
2023/12/29 23:29:43;;;;;;;27.25;12.30;;;;;;;;;;10539164;28;20056;-65
2023/12/29 23:34:44;;;;;;;23.05;12.40;;;;;;;;;;10539197;28;20016;-65
2023/12/29 23:39:44;;;;;;;21.92;12.70;;;;;;;;;;10539071;28;20539;-65
2023/12/29 23:44:45;;;;;;;21.70;13.77;;;;;;;;;;10539350;28;20085;-65
2023/12/29 23:49:48;;;;;;;18.75;12.00;;;;;;;;;;10520524;28;20506;-64
2023/12/29 23:54:48;;;;;;;18.98;12.25;;;;;;;;;;10538629;28;20439;-65
2023/12/29 23:59:49;;;;;;;21.98;12.02;;;;;;;;;;10537214;28;20082;-65
